Time;durP1;ratioP1;P1;durP2;ratioP2;P2;SDS_P1;SDS_P2;PMS_P1;PMS_P2;Temp;Humidity;BMP_temperature;BMP_pressure;BME280_temperature;BME280_humidity;BME280_pressure;Samples;Min_cycle;Max_cycle;Signal;HPM_P1;HPM_P2
2021/11/12 00:14:08;;;;;;;39.85;24.67;;;;;;;;;;6212279;28;20046;-65
2021/11/12 00:17:10;;;;;;;35.33;23.70;;;;;;;;;;6197603;28;20049;-65
2021/11/12 00:20:12;;;;;;;38.33;24.15;;;;;;;;;;6205352;28;20457;-66
2021/11/12 00:23:14;;;;;;;43.63;26.45;;;;;;;;;;6210864;28;20060;-65
2021/11/12 00:26:16;;;;;;;37.88;24.65;;;;;;;;;;6205079;28;20043;-65
2021/11/12 00:29:19;;;;;;;39.88;24.85;;;;;;;;;;6212858;28;20038;-65
2021/11/12 00:32:27;;;;;;;38.58;25.30;;;;;;;;;;6193822;28;20112;-64
2021/11/12 00:35:35;;;;;;;41.10;25.02;;;;;;;;;;6202151;28;20042;-66
2021/11/12 00:38:39;;;;;;;40.22;24.65;;;;;;;;;;6210757;28;20175;-66
2021/11/12 00:41:42;;;;;;;39.95;23.85;;;;;;;;;;6190209;28;20814;-65
2021/11/12 00:44:48;;;;;;;43.50;25.60;;;;;;;;;;6200391;28;20054;-65
2021/11/12 00:47:53;;;;;;;41.78;24.70;;;;;;;;;;6184722;28;20068;-66
2021/11/12 00:54:16;;;;;;;44.35;26.05;;;;;;;;;;6210420;28;20104;-65
2021/11/12 00:57:17;;;;;;;43.70;26.92;;;;;;;;;;6207608;28;20121;-65
2021/11/12 01:00:21;;;;;;;41.65;25.63;;;;;;;;;;6200795;28;20136;-66
2021/11/12 01:03:24;;;;;;;39.07;25.67;;;;;;;;;;6200528;28;20137;-65
2021/11/12 01:06:26;;;;;;;39.75;25.42;;;;;;;;;;6195979;28;20084;-66
2021/11/12 01:09:27;;;;;;;41.10;26.30;;;;;;;;;;6206458;28;20133;-65
2021/11/12 01:12:29;;;;;;;41.17;25.83;;;;;;;;;;6197042;28;20050;-65
2021/11/12 01:15:32;;;;;;;45.10;25.83;;;;;;;;;;6197814;28;20093;-65
2021/11/12 01:18:36;;;;;;;44.47;26.02;;;;;;;;;;6205246;28;20049;-65
2021/11/12 01:21:38;;;;;;;44.30;26.58;;;;;;;;;;6196188;28;20077;-65
2021/11/12 01:24:39;;;;;;;43.45;25.02;;;;;;;;;;6210711;28;20133;-64
2021/11/12 01:27:42;;;;;;;40.63;24.35;;;;;;;;;;6206187;28;20068;-65
2021/11/12 01:30:44;;;;;;;39.38;24.67;;;;;;;;;;6200139;28;20811;-65
2021/11/12 01:33:46;;;;;;;34.80;23.83;;;;;;;;;;6210285;28;20042;-65
2021/11/12 01:36:48;;;;;;;38.55;23.15;;;;;;;;;;6203087;28;20144;-65
2021/11/12 01:39:52;;;;;;;39.88;23.60;;;;;;;;;;6209206;28;20053;-65
2021/11/12 01:42:56;;;;;;;36.25;22.30;;;;;;;;;;6210438;28;20153;-65
2021/11/12 01:46:10;;;;;;;39.17;22.67;;;;;;;;;;6205623;28;20045;-65
2021/11/12 01:49:22;;;;;;;34.65;21.08;;;;;;;;;;6214461;28;20037;-65
2021/11/12 01:52:29;;;;;;;35.58;21.55;;;;;;;;;;6203685;28;20090;-65
2021/11/12 01:55:40;;;;;;;40.05;22.48;;;;;;;;;;6206281;28;20282;-65
2021/11/12 02:02:07;;;;;;;31.17;20.65;;;;;;;;;;6193936;28;20049;-64
2021/11/12 02:05:09;;;;;;;31.75;21.35;;;;;;;;;;6202102;28;20057;-65
2021/11/12 02:08:11;;;;;;;35.20;21.30;;;;;;;;;;6206587;28;20489;-65
2021/11/12 02:11:12;;;;;;;34.13;21.38;;;;;;;;;;6204829;28;20115;-65
2021/11/12 02:14:14;;;;;;;36.30;22.27;;;;;;;;;;6216724;28;20111;-64
2021/11/12 02:17:19;;;;;;;35.05;21.85;;;;;;;;;;6193964;28;20629;-65
2021/11/12 02:20:25;;;;;;;35.60;22.05;;;;;;;;;;6202114;28;20403;-65
2021/11/12 02:23:33;;;;;;;35.33;21.77;;;;;;;;;;6209701;28;20526;-65
2021/11/12 02:26:38;;;;;;;36.25;21.88;;;;;;;;;;6198755;28;20471;-65
2021/11/12 02:29:45;;;;;;;35.42;23.15;;;;;;;;;;6213439;28;20046;-64
2021/11/12 02:32:56;;;;;;;36.78;23.73;;;;;;;;;;6195154;28;20053;-65
2021/11/12 02:36:01;;;;;;;34.08;23.25;;;;;;;;;;6203669;28;20046;-64
2021/11/12 02:39:05;;;;;;;37.15;22.27;;;;;;;;;;6184053;28;20038;-64
2021/11/12 02:42:06;;;;;;;36.20;22.00;;;;;;;;;;6204818;28;20096;-64
2021/11/12 02:45:08;;;;;;;36.15;22.77;;;;;;;;;;6210463;28;20569;-66
2021/11/12 02:48:09;;;;;;;36.67;22.30;;;;;;;;;;6204168;28;20602;-65
2021/11/12 02:51:13;;;;;;;37.83;22.65;;;;;;;;;;6198770;28;20068;-64
2021/11/12 02:54:15;;;;;;;37.53;23.03;;;;;;;;;;6212358;28;20041;-64
2021/11/12 02:57:19;;;;;;;38.63;23.02;;;;;;;;;;6200725;28;20172;-64
2021/11/12 03:00:22;;;;;;;35.83;23.15;;;;;;;;;;6200706;28;20061;-65
2021/11/12 03:03:23;;;;;;;39.22;24.98;;;;;;;;;;6203737;28;20131;-65
2021/11/12 03:06:25;;;;;;;38.70;25.20;;;;;;;;;;6199557;28;20046;-65
2021/11/12 03:09:29;;;;;;;41.40;26.20;;;;;;;;;;6210911;28;20848;-64
2021/11/12 03:12:30;;;;;;;44.97;26.83;;;;;;;;;;6206644;28;20088;-64
2021/11/12 03:15:32;;;;;;;39.95;25.38;;;;;;;;;;6207954;28;20045;-64
2021/11/12 03:18:33;;;;;;;45.97;26.98;;;;;;;;;;6210365;28;20049;-65
2021/11/12 03:21:35;;;;;;;41.65;27.73;;;;;;;;;;6197638;28;20195;-65
2021/11/12 03:24:40;;;;;;;48.08;28.65;;;;;;;;;;6213952;28;20054;-65
2021/11/12 03:27:48;;;;;;;47.40;29.08;;;;;;;;;;6199976;28;20049;-65
2021/11/12 04:00:38;;;;;;;53.78;31.88;;;;;;;;;;6191253;28;20038;-66
2021/11/12 04:03:50;;;;;;;54.75;31.10;;;;;;;;;;6202397;28;20140;-67
2021/11/12 04:06:57;;;;;;;49.25;30.92;;;;;;;;;;6197303;28;20050;-67
2021/11/12 04:20:19;;;;;;;44.90;28.85;;;;;;;;;;6212018;28;20621;-67
2021/11/12 04:40:25;;;;;;;52.42;30.95;;;;;;;;;;6193902;28;20058;-66
2021/11/12 05:10:12;;;;;;;39.80;26.45;;;;;;;;;;6187449;28;20170;-65
2021/11/12 05:43:39;;;;;;;35.17;21.98;;;;;;;;;;6191016;28;20490;-65
2021/11/12 05:46:45;;;;;;;37.95;21.63;;;;;;;;;;6173640;28;20050;-66
2021/11/12 05:49:53;;;;;;;31.60;20.85;;;;;;;;;;6192762;28;20107;-66
2021/11/12 05:56:15;;;;;;;36.90;21.92;;;;;;;;;;6177893;28;20051;-65
2021/11/12 05:59:17;;;;;;;40.42;21.95;;;;;;;;;;6194273;28;20512;-66
2021/11/12 06:02:18;;;;;;;34.58;22.55;;;;;;;;;;6175582;28;20050;-65
2021/11/12 06:05:20;;;;;;;32.95;20.70;;;;;;;;;;6180780;28;20042;-66
2021/11/12 06:08:23;;;;;;;35.90;21.73;;;;;;;;;;6186404;28;20057;-66
2021/11/12 06:11:27;;;;;;;34.20;20.90;;;;;;;;;;6181855;28;20415;-65
2021/11/12 06:14:28;;;;;;;31.80;20.95;;;;;;;;;;6187457;28;20042;-66
2021/11/12 06:17:30;;;;;;;33.65;21.33;;;;;;;;;;6172713;28;20053;-66
2021/11/12 06:20:32;;;;;;;32.10;21.88;;;;;;;;;;6176820;28;20865;-66
2021/11/12 06:23:34;;;;;;;32.70;20.50;;;;;;;;;;6186521;28;20417;-66
2021/11/12 06:26:36;;;;;;;32.50;20.70;;;;;;;;;;6177791;28;20053;-63
2021/11/12 06:29:38;;;;;;;32.08;21.20;;;;;;;;;;6188260;28;20046;-62
2021/11/12 06:32:41;;;;;;;36.05;22.08;;;;;;;;;;6171129;28;20045;-63
2021/11/12 06:35:42;;;;;;;32.67;21.02;;;;;;;;;;6176379;28;20116;-66
2021/11/12 06:38:45;;;;;;;33.05;22.40;;;;;;;;;;6205454;28;20045;-65
2021/11/12 06:41:56;;;;;;;35.90;22.65;;;;;;;;;;6203191;28;20058;-63
2021/11/12 06:51:44;;;;;;;37.55;22.48;;;;;;;;;;6195624;28;20045;-64
2021/11/12 06:54:47;;;;;;;33.95;22.88;;;;;;;;;;6208014;28;20038;-65
2021/11/12 06:57:49;;;;;;;35.08;21.90;;;;;;;;;;6198091;28;20046;-65
2021/11/12 07:00:50;;;;;;;34.92;21.83;;;;;;;;;;6195117;28;20728;-65
2021/11/12 07:03:52;;;;;;;36.17;21.83;;;;;;;;;;6208087;28;20053;-64
2021/11/12 07:06:53;;;;;;;32.25;20.50;;;;;;;;;;6197199;28;20123;-64
2021/11/12 07:09:56;;;;;;;38.67;23.83;;;;;;;;;;6211857;28;20137;-64
2021/11/12 07:12:57;;;;;;;29.85;18.67;;;;;;;;;;6201206;28;20094;-64
2021/11/12 07:16:00;;;;;;;29.63;17.63;;;;;;;;;;6195035;28;20127;-63
2021/11/12 07:19:02;;;;;;;28.20;17.35;;;;;;;;;;6204595;28;20042;-64
2021/11/12 07:22:04;;;;;;;25.73;16.77;;;;;;;;;;6196610;28;20038;-65
2021/11/12 07:25:08;;;;;;;30.02;17.58;;;;;;;;;;6208409;28;20184;-65
2021/11/12 07:28:09;;;;;;;21.52;15.43;;;;;;;;;;6205643;28;20042;-64
2021/11/12 07:31:11;;;;;;;26.20;14.63;;;;;;;;;;6189086;28;20188;-65
2021/11/12 07:34:12;;;;;;;24.55;15.27;;;;;;;;;;6204488;28;20069;-65
2021/11/12 07:37:13;;;;;;;26.17;14.98;;;;;;;;;;6196472;28;20050;-64
2021/11/12 07:40:24;;;;;;;24.27;14.25;;;;;;;;;;6201906;28;20050;-68
2021/11/12 07:46:46;;;;;;;22.95;13.80;;;;;;;;;;6199500;28;20073;-65
2021/11/12 07:49:49;;;;;;;21.30;13.85;;;;;;;;;;6209209;28;20378;-65
2021/11/12 07:52:50;;;;;;;20.75;13.40;;;;;;;;;;6198676;28;20640;-64
2021/11/12 07:55:53;;;;;;;24.95;13.73;;;;;;;;;;6193067;28;20309;-64
2021/11/12 07:58:55;;;;;;;21.58;13.05;;;;;;;;;;6210084;28;20049;-64
2021/11/12 08:01:56;;;;;;;23.80;13.90;;;;;;;;;;6197625;28;20050;-65
2021/11/12 08:05:01;;;;;;;20.10;14.23;;;;;;;;;;6205679;28;20129;-64
2021/11/12 08:08:07;;;;;;;23.90;14.02;;;;;;;;;;6197609;28;20196;-64
2021/11/12 08:11:14;;;;;;;24.42;13.65;;;;;;;;;;6201400;28;20072;-63
2021/11/12 08:14:21;;;;;;;21.77;14.15;;;;;;;;;;6210243;28;20050;-64
2021/11/12 08:17:30;;;;;;;26.50;14.05;;;;;;;;;;6192755;28;20436;-65
2021/11/12 08:20:35;;;;;;;20.30;14.30;;;;;;;;;;6200799;28;20048;-64
2021/11/12 08:27:02;;;;;;;25.35;14.85;;;;;;;;;;6188180;28;20136;-64
2021/11/12 08:30:16;;;;;;;20.27;14.13;;;;;;;;;;6213349;28;20056;-64
2021/11/12 08:33:32;;;;;;;21.08;14.73;;;;;;;;;;6200796;28;20192;-66
2021/11/12 08:36:50;;;;;;;22.20;14.50;;;;;;;;;;6197702;28;20512;-65
2021/11/12 08:40:01;;;;;;;27.13;15.45;;;;;;;;;;6209468;28;20042;-65
2021/11/12 08:43:07;;;;;;;25.35;14.73;;;;;;;;;;6199798;28;20045;-64
2021/11/12 08:46:16;;;;;;;20.80;14.63;;;;;;;;;;6204077;28;20061;-64
2021/11/12 08:49:18;;;;;;;25.42;15.50;;;;;;;;;;6209624;28;20707;-64
2021/11/12 08:52:23;;;;;;;30.42;15.55;;;;;;;;;;6210033;28;20497;-65
2021/11/12 08:55:26;;;;;;;23.92;14.70;;;;;;;;;;6211291;28;20898;-64
2021/11/12 08:58:30;;;;;;;22.73;14.88;;;;;;;;;;6218009;28;20042;-65
2021/11/12 09:01:32;;;;;;;24.58;15.25;;;;;;;;;;6181769;28;20497;-66
2021/11/12 09:04:34;;;;;;;24.33;14.13;;;;;;;;;;6212265;28;20041;-64
2021/11/12 09:07:35;;;;;;;19.60;14.73;;;;;;;;;;6201511;28;20054;-64
2021/11/12 09:10:37;;;;;;;21.85;14.95;;;;;;;;;;6206826;28;20525;-65
2021/11/12 09:13:44;;;;;;;27.52;14.80;;;;;;;;;;6214281;28;20061;-64
2021/11/12 09:16:47;;;;;;;19.60;14.10;;;;;;;;;;6197238;28;20045;-65
2021/11/12 09:19:50;;;;;;;21.58;14.77;;;;;;;;;;6212974;28;20050;-65
2021/11/12 09:22:53;;;;;;;;;;;;;;;;;;6202344;28;20048;-65
2021/11/12 09:25:54;;;;;;;23.40;14.30;;;;;;;;;;6203200;28;20399;-64
2021/11/12 09:28:57;;;;;;;20.98;13.95;;;;;;;;;;6213644;28;20101;-64
2021/11/12 09:31:59;;;;;;;21.08;14.93;;;;;;;;;;6202823;28;20076;-64
2021/11/12 09:35:00;;;;;;;18.92;13.57;;;;;;;;;;6211841;28;20046;-64
2021/11/12 09:38:01;;;;;;;22.83;14.68;;;;;;;;;;6222585;28;20136;-64
2021/11/12 09:41:04;;;;;;;19.27;14.80;;;;;;;;;;6206701;28;20041;-65
2021/11/12 09:44:07;;;;;;;24.60;14.98;;;;;;;;;;6212193;28;20056;-64
2021/11/12 09:47:09;;;;;;;22.40;14.43;;;;;;;;;;6198877;28;21130;-64
2021/11/12 09:50:12;;;;;;;19.13;14.07;;;;;;;;;;6205955;28;20532;-65
2021/11/12 09:53:14;;;;;;;22.38;14.27;;;;;;;;;;6207577;28;20140;-65
2021/11/12 09:56:15;;;;;;;22.52;14.52;;;;;;;;;;6202262;28;20095;-64
2021/11/12 09:59:18;;;;;;;20.83;14.23;;;;;;;;;;6217173;28;20050;-65
2021/11/12 10:02:19;;;;;;;18.57;14.47;;;;;;;;;;6194772;28;20042;-65
2021/11/12 10:05:32;;;;;;;18.55;14.07;;;;;;;;;;6203409;28;20045;-66
2021/11/12 10:08:38;;;;;;;24.65;14.27;;;;;;;;;;6213759;28;20034;-65
2021/11/12 10:11:45;;;;;;;19.33;15.02;;;;;;;;;;6209784;28;20132;-65
2021/11/12 10:14:51;;;;;;;20.70;14.55;;;;;;;;;;6216021;28;20053;-65
2021/11/12 10:17:53;;;;;;;17.85;13.98;;;;;;;;;;6195602;28;20541;-66
2021/11/12 10:20:57;;;;;;;18.83;14.27;;;;;;;;;;6203235;28;20053;-65
2021/11/12 10:23:59;;;;;;;18.38;13.77;;;;;;;;;;6213078;28;20084;-66
2021/11/12 10:27:02;;;;;;;21.90;14.70;;;;;;;;;;6208350;28;20054;-65
2021/11/12 10:30:11;;;;;;;23.92;15.23;;;;;;;;;;6211843;28;20537;-66
2021/11/12 10:33:12;;;;;;;23.48;15.38;;;;;;;;;;6192187;28;20046;-64
2021/11/12 10:36:13;;;;;;;19.60;15.10;;;;;;;;;;6202749;28;20042;-65
2021/11/12 10:39:15;;;;;;;22.85;15.00;;;;;;;;;;6213139;28;20586;-64
2021/11/12 10:42:17;;;;;;;20.13;15.00;;;;;;;;;;6203805;28;20064;-65
2021/11/12 10:45:23;;;;;;;19.98;15.30;;;;;;;;;;6204988;28;20046;-65
2021/11/12 10:48:28;;;;;;;22.25;15.52;;;;;;;;;;6206442;28;20141;-65
2021/11/12 10:51:29;;;;;;;21.30;13.93;;;;;;;;;;6203080;28;20124;-65
2021/11/12 10:54:39;;;;;;;18.70;14.23;;;;;;;;;;6213967;28;20072;-65
2021/11/12 10:57:41;;;;;;;20.83;14.45;;;;;;;;;;6203969;28;20049;-64
2021/11/12 11:00:46;;;;;;;19.67;14.68;;;;;;;;;;6195558;28;20073;-65
2021/11/12 11:03:48;;;;;;;18.15;14.23;;;;;;;;;;6207961;28;20093;-65
2021/11/12 11:06:50;;;;;;;20.88;14.57;;;;;;;;;;6214769;28;20053;-66
2021/11/12 11:09:53;;;;;;;20.65;15.23;;;;;;;;;;6210788;28;20703;-65
2021/11/12 11:12:55;;;;;;;21.48;15.73;;;;;;;;;;6201120;28;20051;-65
2021/11/12 11:15:59;;;;;;;19.00;14.18;;;;;;;;;;6197518;28;20061;-65
2021/11/12 11:19:01;;;;;;;20.08;14.82;;;;;;;;;;6209122;28;20137;-65
2021/11/12 11:22:04;;;;;;;19.30;14.60;;;;;;;;;;6201219;28;20052;-65
2021/11/12 11:25:05;;;;;;;;;;;;;;;;;;6208040;28;20046;-66
2021/11/12 11:28:07;;;;;;;18.95;13.30;;;;;;;;;;6203637;28;19926;-64
2021/11/12 11:31:11;;;;;;;17.88;14.65;;;;;;;;;;6200952;28;20061;-67
2021/11/12 11:34:12;;;;;;;20.95;15.70;;;;;;;;;;6207786;28;20046;-64
2021/11/12 11:37:14;;;;;;;20.63;14.68;;;;;;;;;;6198704;28;20041;-64
2021/11/12 11:40:16;;;;;;;21.17;15.85;;;;;;;;;;6199445;28;20181;-66
2021/11/12 11:43:17;;;;;;;19.90;16.30;;;;;;;;;;6207409;28;20050;-64
2021/11/12 11:46:23;;;;;;;22.95;17.17;;;;;;;;;;6193062;28;20240;-66
2021/11/12 11:49:26;;;;;;;17.80;14.10;;;;;;;;;;6209956;28;20114;-64
2021/11/12 11:52:29;;;;;;;18.70;15.13;;;;;;;;;;6195644;28;20056;-64
2021/11/12 11:55:31;;;;;;;18.75;14.68;;;;;;;;;;6200253;28;21012;-66
2021/11/12 11:58:34;;;;;;;18.37;14.17;;;;;;;;;;6206776;28;20042;-65
2021/11/12 12:01:42;;;;;;;17.30;14.45;;;;;;;;;;6191473;28;20077;-64
2021/11/12 12:04:48;;;;;;;16.73;14.13;;;;;;;;;;6207091;28;20046;-64
2021/11/12 12:07:52;;;;;;;20.13;14.40;;;;;;;;;;6201049;28;20485;-63
2021/11/12 12:11:15;;;;;;;19.67;14.95;;;;;;;;;;6201983;28;20121;-65
2021/11/12 12:14:17;;;;;;;20.23;14.45;;;;;;;;;;6210188;28;20137;-66
2021/11/12 12:17:24;;;;;;;20.80;15.55;;;;;;;;;;6192895;28;20141;-67
2021/11/12 12:20:32;;;;;;;20.35;15.32;;;;;;;;;;6195413;28;20096;-67
2021/11/12 12:31:01;;;;;;;19.20;14.00;;;;;;;;;;6199966;28;20053;-66
2021/11/12 12:34:40;;;;;;;19.20;15.00;;;;;;;;;;6213634;28;20365;-66
2021/11/12 13:21:45;;;;;;;21.70;16.00;;;;;;;;;;6146327;28;20057;-65
2021/11/12 13:24:53;;;;;;;21.30;15.70;;;;;;;;;;6205060;28;20139;-65
2021/11/12 13:28:12;;;;;;;22.30;15.88;;;;;;;;;;6205229;28;20050;-65
2021/11/12 13:31:14;;;;;;;21.35;15.13;;;;;;;;;;6188782;28;20088;-66
2021/11/12 13:34:16;;;;;;;20.40;15.73;;;;;;;;;;6205220;28;20141;-66
2021/11/12 13:37:21;;;;;;;31.33;21.80;;;;;;;;;;6199428;28;20124;-66
2021/11/12 13:40:24;;;;;;;71.38;49.88;;;;;;;;;;6202486;28;20113;-67
2021/11/12 13:43:26;;;;;;;22.30;17.17;;;;;;;;;;6213948;28;20042;-66
2021/11/12 13:46:27;;;;;;;20.60;15.88;;;;;;;;;;6209451;28;20191;-66
2021/11/12 13:49:30;;;;;;;21.33;15.20;;;;;;;;;;6212913;28;20065;-66
2021/11/12 13:52:33;;;;;;;22.57;17.57;;;;;;;;;;6204266;28;20060;-66
2021/11/12 13:55:37;;;;;;;22.63;16.40;;;;;;;;;;6208269;28;20555;-66
2021/11/12 13:58:39;;;;;;;22.10;16.45;;;;;;;;;;6220783;28;20042;-65
2021/11/12 14:01:41;;;;;;;22.17;17.48;;;;;;;;;;6202969;28;20065;-65
2021/11/12 14:04:42;;;;;;;26.02;18.50;;;;;;;;;;6215914;28;20468;-65
2021/11/12 14:07:45;;;;;;;21.88;17.45;;;;;;;;;;6204682;28;20124;-65
2021/11/12 14:10:49;;;;;;;25.17;16.77;;;;;;;;;;6208668;28;20061;-65
2021/11/12 14:13:51;;;;;;;22.70;16.10;;;;;;;;;;6215566;28;20061;-65
2021/11/12 14:16:55;;;;;;;21.50;15.85;;;;;;;;;;6196283;28;20064;-65
2021/11/12 14:20:18;;;;;;;22.15;16.13;;;;;;;;;;6207658;28;20144;-66
2021/11/12 14:23:21;;;;;;;23.27;16.40;;;;;;;;;;6207425;28;20096;-65
2021/11/12 14:26:28;;;;;;;27.67;18.73;;;;;;;;;;6209091;28;20057;-65
2021/11/12 14:29:35;;;;;;;21.55;15.95;;;;;;;;;;6209939;28;20046;-64
2021/11/12 14:32:57;;;;;;;22.40;15.85;;;;;;;;;;6197357;28;20057;-66
2021/11/12 14:36:16;;;;;;;23.67;16.13;;;;;;;;;;6209702;28;20038;-65
2021/11/12 14:39:23;;;;;;;22.17;18.02;;;;;;;;;;6210272;28;20432;-65
2021/11/12 14:46:09;;;;;;;25.65;18.45;;;;;;;;;;6184841;28;20052;-68
2021/11/12 14:49:16;;;;;;;24.10;17.67;;;;;;;;;;6197014;28;20058;-66
2021/11/12 14:52:24;;;;;;;23.73;17.83;;;;;;;;;;6199015;28;20854;-67
2021/11/12 14:55:26;;;;;;;24.17;16.83;;;;;;;;;;6203450;28;20208;-65
2021/11/12 14:58:29;;;;;;;23.83;16.67;;;;;;;;;;6219486;28;20094;-66
2021/11/12 15:01:32;;;;;;;23.73;17.35;;;;;;;;;;6204873;28;20050;-66
2021/11/12 15:04:33;;;;;;;24.92;17.98;;;;;;;;;;6214934;28;20053;-66
2021/11/12 15:07:37;;;;;;;25.17;19.25;;;;;;;;;;6207329;28;20136;-66
2021/11/12 15:10:39;;;;;;;26.20;19.15;;;;;;;;;;6203152;28;20069;-67
2021/11/12 15:13:44;;;;;;;26.83;18.42;;;;;;;;;;6210132;28;20132;-67
2021/11/12 15:16:45;;;;;;;27.17;18.85;;;;;;;;;;6191761;28;20049;-67
2021/11/12 15:19:48;;;;;;;26.67;19.35;;;;;;;;;;6209330;28;20560;-66
2021/11/12 15:23:12;;;;;;;25.45;18.83;;;;;;;;;;6203709;28;20052;-66
2021/11/12 15:29:32;;;;;;;29.60;19.20;;;;;;;;;;6195700;28;20487;-66
2021/11/12 15:32:35;;;;;;;93.75;59.42;;;;;;;;;;6189464;28;20033;-67
2021/11/12 15:35:37;;;;;;;123.93;95.95;;;;;;;;;;6201496;28;20046;-66
2021/11/12 15:38:45;;;;;;;27.98;20.60;;;;;;;;;;6209947;28;20080;-66
2021/11/12 15:42:09;;;;;;;28.02;19.42;;;;;;;;;;6204329;28;20223;-67
2021/11/12 15:45:15;;;;;;;27.98;19.48;;;;;;;;;;6204790;28;20046;-68
2021/11/12 15:48:18;;;;;;;26.90;18.98;;;;;;;;;;6207778;28;20109;-66
2021/11/12 15:54:59;;;;;;;28.23;18.40;;;;;;;;;;6210890;28;20108;-68
2021/11/12 15:58:33;;;;;;;28.60;20.52;;;;;;;;;;6204337;28;20037;-65
2021/11/12 16:01:58;;;;;;;28.42;20.17;;;;;;;;;;6192949;28;20335;-65
2021/11/12 16:05:27;;;;;;;25.70;18.98;;;;;;;;;;6209536;28;20045;-66
2021/11/12 16:08:38;;;;;;;33.53;22.95;;;;;;;;;;6212647;28;20045;-67
2021/11/12 16:11:54;;;;;;;34.97;23.92;;;;;;;;;;6202925;28;20072;-67
2021/11/12 16:15:08;;;;;;;34.38;23.80;;;;;;;;;;6210810;28;20151;-67
2021/11/12 16:18:22;;;;;;;37.00;24.55;;;;;;;;;;6199007;28;20077;-68
2021/11/12 16:24:54;;;;;;;41.03;28.35;;;;;;;;;;6213817;28;20642;-67
2021/11/12 16:27:59;;;;;;;44.75;28.75;;;;;;;;;;6190001;28;20053;-67
2021/11/12 16:31:02;;;;;;;46.15;28.33;;;;;;;;;;6196688;28;20075;-68
2021/11/12 16:34:10;;;;;;;41.42;29.02;;;;;;;;;;6208501;28;20046;-67
2021/11/12 16:37:12;;;;;;;45.65;29.23;;;;;;;;;;6188578;28;21071;-66
2021/11/12 16:40:18;;;;;;;56.60;31.10;;;;;;;;;;6199023;28;20075;-67
2021/11/12 16:43:28;;;;;;;46.80;29.65;;;;;;;;;;6213276;28;20057;-66
2021/11/12 16:46:43;;;;;;;49.25;30.42;;;;;;;;;;6206378;28;20517;-66
2021/11/12 16:49:59;;;;;;;43.50;28.88;;;;;;;;;;6206154;28;20049;-67
2021/11/12 16:53:14;;;;;;;44.13;29.17;;;;;;;;;;6195426;28;20432;-67
2021/11/12 16:59:50;;;;;;;48.67;31.13;;;;;;;;;;6207936;28;20486;-67
2021/11/12 17:02:53;;;;;;;45.50;29.23;;;;;;;;;;6196664;28;20612;-67
2021/11/12 17:06:01;;;;;;;43.85;28.48;;;;;;;;;;6199645;28;20537;-67
2021/11/12 17:12:43;;;;;;;46.28;30.13;;;;;;;;;;6210127;28;20461;-67
2021/11/12 17:15:52;;;;;;;42.85;29.30;;;;;;;;;;6209717;28;20100;-67
2021/11/12 17:48:58;;;;;;;47.20;31.88;;;;;;;;;;6211598;28;20049;-65
2021/11/12 17:52:31;;;;;;;47.15;30.98;;;;;;;;;;6206116;28;20079;-65
2021/11/12 18:02:14;;;;;;;50.63;32.95;;;;;;;;;;6193356;28;20096;-65
2021/11/12 18:05:23;;;;;;;48.30;30.52;;;;;;;;;;6203911;28;20125;-66
2021/11/12 21:45:15;;;;;;;57.58;36.95;;;;;;;;;;6197948;28;20046;-70
2021/11/12 21:48:16;;;;;;;56.63;34.40;;;;;;;;;;6204890;28;20053;-68
2021/11/12 21:51:24;;;;;;;55.22;35.33;;;;;;;;;;6203127;28;20405;-69
2021/11/12 21:54:25;;;;;;;50.72;34.28;;;;;;;;;;6216037;28;20131;-66
2021/11/12 21:57:26;;;;;;;53.92;35.40;;;;;;;;;;6205251;28;20128;-66
2021/11/12 22:00:29;;;;;;;53.03;34.08;;;;;;;;;;6197011;28;20188;-70
2021/11/12 22:03:31;;;;;;;54.97;35.47;;;;;;;;;;6201812;28;20181;-66
2021/11/12 22:06:34;;;;;;;52.25;34.90;;;;;;;;;;6211465;28;20058;-66
2021/11/12 22:09:36;;;;;;;50.73;33.53;;;;;;;;;;6202009;28;20077;-66
2021/11/12 22:12:37;;;;;;;57.85;36.97;;;;;;;;;;6198056;28;20043;-66
2021/11/12 22:15:40;;;;;;;54.28;35.72;;;;;;;;;;6196040;28;20456;-66
2021/11/12 22:18:45;;;;;;;55.15;34.38;;;;;;;;;;6209809;28;20620;-66
2021/11/12 22:21:48;;;;;;;56.53;34.35;;;;;;;;;;6196435;28;20095;-66
2021/11/12 22:24:49;;;;;;;55.63;34.95;;;;;;;;;;6215478;28;20096;-69
2021/11/12 22:27:51;;;;;;;58.05;34.38;;;;;;;;;;6204592;28;20139;-68
2021/11/12 22:30:53;;;;;;;62.95;36.25;;;;;;;;;;6194996;28;20172;-68
2021/11/12 22:33:54;;;;;;;63.15;35.47;;;;;;;;;;6209123;28;20204;-68
2021/11/12 22:36:57;;;;;;;62.95;37.15;;;;;;;;;;6206107;28;20140;-68
2021/11/12 22:39:59;;;;;;;61.97;36.22;;;;;;;;;;6219317;28;20070;-68
2021/11/12 22:43:00;;;;;;;60.75;35.13;;;;;;;;;;6199259;28;20062;-68
2021/11/12 22:46:02;;;;;;;64.15;37.10;;;;;;;;;;6195818;28;20188;-70
2021/11/12 22:49:03;;;;;;;63.63;35.38;;;;;;;;;;6205181;28;20056;-67
2021/11/12 22:52:06;;;;;;;64.50;35.88;;;;;;;;;;6204360;28;20167;-65
2021/11/12 22:55:08;;;;;;;64.25;36.65;;;;;;;;;;6201791;28;20126;-68
2021/11/12 22:58:10;;;;;;;60.92;36.30;;;;;;;;;;6211565;28;20133;-68
2021/11/12 23:01:13;;;;;;;62.83;35.60;;;;;;;;;;6196329;28;20441;-67
2021/11/12 23:04:14;;;;;;;62.92;35.30;;;;;;;;;;6212804;28;20042;-67
2021/11/12 23:07:17;;;;;;;64.35;33.63;;;;;;;;;;6206010;28;20077;-67
2021/11/12 23:10:19;;;;;;;57.38;33.10;;;;;;;;;;6204135;28;20550;-68
2021/11/12 23:13:20;;;;;;;58.83;33.63;;;;;;;;;;6213034;28;20120;-67
2021/11/12 23:16:22;;;;;;;56.78;34.47;;;;;;;;;;6188239;28;20173;-67
2021/11/12 23:19:24;;;;;;;57.42;34.80;;;;;;;;;;6207266;28;20049;-66
2021/11/12 23:22:26;;;;;;;56.63;35.53;;;;;;;;;;6191634;28;20143;-68
2021/11/12 23:25:28;;;;;;;62.78;35.83;;;;;;;;;;6204054;28;20127;-68
2021/11/12 23:28:30;;;;;;;59.28;33.55;;;;;;;;;;6213839;28;20128;-67
2021/11/12 23:31:31;;;;;;;61.05;34.67;;;;;;;;;;6195340;28;20049;-68
2021/11/12 23:34:33;;;;;;;65.07;36.63;;;;;;;;;;6210147;28;20123;-66
2021/11/12 23:37:35;;;;;;;63.70;36.92;;;;;;;;;;6194411;28;20076;-67
2021/11/12 23:40:37;;;;;;;63.47;36.55;;;;;;;;;;6201773;28;20046;-66
2021/11/12 23:43:38;;;;;;;61.13;35.28;;;;;;;;;;6213798;28;20108;-67
2021/11/12 23:46:40;;;;;;;56.33;34.35;;;;;;;;;;6189048;28;20133;-67
2021/11/12 23:49:41;;;;;;;60.83;35.53;;;;;;;;;;6206499;28;20089;-67
2021/11/12 23:52:44;;;;;;;64.45;35.92;;;;;;;;;;6192541;28;20132;-67
2021/11/12 23:55:46;;;;;;;60.33;35.63;;;;;;;;;;6196984;28;20493;-65
2021/11/12 23:58:47;;;;;;;56.85;35.92;;;;;;;;;;6209118;28;20049;-66
